createdAt,value
2018-12-13T00:01:37.554Z,21.93
2018-12-13T00:03:59.864Z,22.73
2018-12-13T00:06:22.127Z,21.80
2018-12-13T00:08:44.375Z,17.53
2018-12-13T00:11:06.706Z,22.57
2018-12-13T00:13:28.985Z,23.63
2018-12-13T00:15:51.344Z,20.93
2018-12-13T00:18:13.694Z,22.57
2018-12-13T00:20:36.061Z,26.90
2018-12-13T00:23:04.071Z,24.40
2018-12-13T00:25:26.392Z,23.63
2018-12-13T00:27:48.731Z,25.97
2018-12-13T00:30:11.066Z,15.17
2018-12-13T00:32:33.345Z,19.93
2018-12-13T00:34:55.602Z,17.43
2018-12-13T00:37:17.949Z,21.43
2018-12-13T00:39:40.215Z,20.93
2018-12-13T00:42:02.513Z,22.33
2018-12-13T00:44:24.783Z,23.27
2018-12-13T00:46:47.107Z,23.13
2018-12-13T00:49:09.394Z,20.83
2018-12-13T00:51:31.724Z,22.30
2018-12-13T00:53:54.586Z,16.73
2018-12-13T00:56:16.895Z,21.83
2018-12-13T00:58:39.407Z,22.87
2018-12-13T01:01:01.677Z,23.07
2018-12-13T01:03:23.935Z,21.40
2018-12-13T01:05:46.212Z,22.27
2018-12-13T01:08:08.525Z,23.10
2018-12-13T01:10:30.844Z,21.70
2018-12-13T01:12:53.569Z,28.33
2018-12-13T01:15:15.885Z,27.07
2018-12-13T01:17:38.202Z,23.27
2018-12-13T01:20:00.608Z,25.57
2018-12-13T01:22:22.835Z,26.80
2018-12-13T01:24:45.133Z,25.57
2018-12-13T01:27:08.395Z,29.00
2018-12-13T01:29:30.729Z,25.83
2018-12-13T01:31:53.892Z,25.40
2018-12-13T01:34:16.223Z,24.90
2018-12-13T01:36:38.539Z,26.97
2018-12-13T01:39:00.851Z,24.73
2018-12-13T01:41:23.145Z,27.20
2018-12-13T01:43:45.443Z,23.10
2018-12-13T01:46:07.791Z,28.23
2018-12-13T01:48:30.145Z,27.50
2018-12-13T01:50:52.510Z,21.30
2018-12-13T01:53:14.846Z,22.50
2018-12-13T01:55:37.139Z,21.90
2018-12-13T01:57:59.425Z,19.23
2018-12-13T02:00:21.776Z,17.57
2018-12-13T02:02:44.667Z,19.30
2018-12-13T02:05:06.952Z,18.50
2018-12-13T02:07:29.328Z,15.27
2018-12-13T02:09:51.619Z,14.03
2018-12-13T02:12:14.013Z,13.60
2018-12-13T02:14:36.378Z,15.27
2018-12-13T02:16:58.674Z,11.80
2018-12-13T02:19:21.001Z,12.43
2018-12-13T02:21:43.898Z,12.23
2018-12-13T02:24:06.224Z,12.57
2018-12-13T02:26:28.581Z,12.83
2018-12-13T02:28:51.028Z,12.03
2018-12-13T02:31:14.340Z,14.07
2018-12-13T02:33:36.889Z,12.57
2018-12-13T02:35:59.305Z,12.13
2018-12-13T02:38:21.618Z,13.23
2018-12-13T02:40:43.917Z,11.53
2018-12-13T02:43:06.243Z,11.13
2018-12-13T02:45:28.552Z,12.00
2018-12-13T02:47:50.843Z,14.53
2018-12-13T02:50:13.199Z,12.57
2018-12-13T02:52:36.062Z,11.90
2018-12-13T02:54:58.403Z,12.67
2018-12-13T02:57:20.727Z,10.33
2018-12-13T02:59:43.040Z,10.80
2018-12-13T03:02:05.610Z,14.33
2018-12-13T03:04:27.895Z,14.10
2018-12-13T03:06:50.216Z,12.70
2018-12-13T03:09:12.491Z,15.57
2018-12-13T03:11:35.238Z,12.23
2018-12-13T03:13:57.889Z,15.50
2018-12-13T03:16:20.209Z,15.03
2018-12-13T03:18:42.489Z,16.03
2018-12-13T03:21:04.817Z,14.13
2018-12-13T03:23:27.171Z,16.47
2018-12-13T03:25:49.491Z,18.27
2018-12-13T03:28:11.852Z,14.30
2018-12-13T03:30:34.099Z,16.50
2018-12-13T03:32:56.393Z,21.57
2018-12-13T03:35:18.689Z,16.20
2018-12-13T03:37:40.973Z,17.70
2018-12-13T03:40:03.649Z,20.13
2018-12-13T03:42:25.992Z,18.17
2018-12-13T03:44:48.301Z,20.33
2018-12-13T03:47:10.645Z,20.07
2018-12-13T03:49:33.785Z,18.53
2018-12-13T03:51:56.060Z,21.70
2018-12-13T03:54:18.435Z,17.73
2018-12-13T03:56:40.707Z,21.00
2018-12-13T03:59:03.024Z,21.93
2018-12-13T04:01:25.285Z,22.83
2018-12-13T04:03:47.581Z,17.53
2018-12-13T04:06:09.914Z,20.47
2018-12-13T04:08:32.181Z,22.83
2018-12-13T04:10:54.468Z,21.70
2018-12-13T04:13:16.781Z,22.40
2018-12-13T04:15:39.188Z,25.70
2018-12-13T04:18:01.528Z,22.83
2018-12-13T04:20:23.831Z,21.70
2018-12-13T04:22:46.116Z,23.53
2018-12-13T04:25:08.465Z,20.87
2018-12-13T04:27:30.722Z,20.27
2018-12-13T04:29:53.036Z,24.53
2018-12-13T04:32:15.310Z,26.93
2018-12-13T04:34:37.570Z,21.07
2018-12-13T04:36:59.846Z,23.53
2018-12-13T04:39:22.235Z,24.80
2018-12-13T04:41:44.513Z,25.73
2018-12-13T04:44:06.857Z,23.87
2018-12-13T04:46:29.116Z,22.90
2018-12-13T04:48:51.371Z,22.97
2018-12-13T04:51:13.676Z,22.60
2018-12-13T04:53:36.049Z,25.60
2018-12-13T04:55:58.316Z,24.47
2018-12-13T04:58:20.571Z,23.57
2018-12-13T05:00:42.930Z,25.83
2018-12-13T05:03:05.251Z,25.50
2018-12-13T05:05:27.549Z,26.63
2018-12-13T05:07:49.840Z,24.53
2018-12-13T05:10:22.374Z,26.27
2018-12-13T05:12:44.651Z,29.13
2018-12-13T05:15:06.929Z,25.37
2018-12-13T05:17:29.210Z,25.97
2018-12-13T05:19:51.475Z,29.83
2018-12-13T05:22:13.750Z,25.03
2018-12-13T05:24:36.051Z,51.63
2018-12-13T05:26:58.333Z,32.40
2018-12-13T05:29:20.574Z,24.30
2018-12-13T05:31:42.840Z,26.13
2018-12-13T05:34:05.116Z,27.10
2018-12-13T05:36:27.367Z,28.13
2018-12-13T05:38:49.660Z,24.23
2018-12-13T05:41:11.968Z,30.40
2018-12-13T05:43:34.304Z,28.53
2018-12-13T05:45:56.602Z,25.27
2018-12-13T05:48:18.926Z,36.23
2018-12-13T05:50:41.185Z,31.60
2018-12-13T05:53:03.578Z,33.70
2018-12-13T05:55:25.883Z,31.53
2018-12-13T05:57:48.115Z,36.80
2018-12-13T06:00:10.436Z,35.43
2018-12-13T06:02:32.795Z,34.87
2018-12-13T06:04:55.066Z,34.57
2018-12-13T06:07:17.372Z,38.97
2018-12-13T06:09:39.667Z,31.37
2018-12-13T06:12:02.001Z,35.57
2018-12-13T06:14:24.288Z,34.97
2018-12-13T06:16:46.547Z,32.20
2018-12-13T06:19:08.827Z,29.17
2018-12-13T06:21:36.689Z,35.43
2018-12-13T06:23:53.475Z,34.63
2018-12-13T06:26:15.765Z,34.03
2018-12-13T06:28:38.051Z,31.27
2018-12-13T06:31:00.384Z,35.30
2018-12-13T06:33:24.931Z,34.73
2018-12-13T06:35:45.012Z,38.90
2018-12-13T06:38:07.307Z,36.70
2018-12-13T06:40:29.646Z,35.50
2018-12-13T06:42:51.978Z,35.37
2018-12-13T06:45:14.321Z,39.77
2018-12-13T06:47:36.601Z,39.93
2018-12-13T06:49:58.935Z,35.73
2018-12-13T06:52:21.243Z,36.30
2018-12-13T06:54:43.542Z,42.27
2018-12-13T06:57:05.945Z,36.40
2018-12-13T06:59:28.267Z,33.23
2018-12-13T07:01:50.644Z,39.23
2018-12-13T07:04:12.947Z,38.33
2018-12-13T07:06:35.327Z,39.93
2018-12-13T07:08:57.656Z,42.17
2018-12-13T07:11:19.996Z,40.57
2018-12-13T07:13:42.321Z,39.67
2018-12-13T07:16:04.716Z,38.83
2018-12-13T07:18:27.102Z,39.80
2018-12-13T07:20:49.480Z,37.50
2018-12-13T07:23:11.848Z,43.13
2018-12-13T07:25:34.185Z,41.47
2018-12-13T07:27:56.945Z,42.63
2018-12-13T07:30:19.339Z,37.13
2018-12-13T07:32:41.716Z,38.77
2018-12-13T07:35:04.347Z,37.97
2018-12-13T07:37:26.694Z,36.10
2018-12-13T07:39:49.011Z,29.57
2018-12-13T07:42:11.368Z,37.70
2018-12-13T07:44:33.696Z,39.23
2018-12-13T07:46:56.132Z,38.93
2018-12-13T07:49:18.512Z,33.10
2018-12-13T07:51:40.790Z,37.50
2018-12-13T07:54:03.149Z,34.40
2018-12-13T07:56:25.449Z,34.60
2018-12-13T07:58:47.738Z,33.10
2018-12-13T08:01:10.062Z,37.70
2018-12-13T08:03:32.399Z,36.67
2018-12-13T08:05:54.774Z,32.17
2018-12-13T08:08:20.906Z,39.03
2018-12-13T08:10:41.436Z,34.13
2018-12-13T08:13:04.100Z,32.23
2018-12-13T08:15:26.682Z,39.93
2018-12-13T08:17:49.085Z,30.80
2018-12-13T08:20:11.576Z,42.77
2018-12-13T08:22:34.027Z,41.77
2018-12-13T08:24:56.571Z,33.20
2018-12-13T08:27:18.961Z,34.27
2018-12-13T08:29:41.696Z,31.47
2018-12-13T08:32:04.122Z,36.17
2018-12-13T08:34:26.511Z,40.77
2018-12-13T08:36:48.970Z,36.77
2018-12-13T08:39:11.670Z,35.37
2018-12-13T08:41:34.635Z,28.00
2018-12-13T08:43:57.015Z,29.47
2018-12-13T08:46:19.384Z,31.43
2018-12-13T08:48:41.767Z,31.27
2018-12-13T08:51:04.087Z,31.73
2018-12-13T08:53:26.407Z,31.17
2018-12-13T08:55:48.793Z,40.53
2018-12-13T08:58:11.267Z,28.40
2018-12-13T09:00:33.726Z,32.67
2018-12-13T09:02:56.126Z,29.93
2018-12-13T09:05:18.572Z,28.10
2018-12-13T09:07:40.900Z,35.80
2018-12-13T09:10:03.619Z,34.20
2018-12-13T09:12:25.978Z,35.60
2018-12-13T09:14:48.502Z,26.90
2018-12-13T09:17:10.856Z,30.20
2018-12-13T09:19:33.174Z,32.93
2018-12-13T09:21:55.534Z,31.80
2018-12-13T09:24:17.890Z,30.00
2018-12-13T09:26:40.223Z,32.53
2018-12-13T09:29:02.576Z,32.77
2018-12-13T09:31:24.915Z,32.93
2018-12-13T09:33:47.309Z,34.80
2018-12-13T09:36:09.894Z,36.87
2018-12-13T09:38:32.333Z,30.00
2018-12-13T09:40:54.727Z,30.13
2018-12-13T09:43:17.184Z,34.17
2018-12-13T09:45:39.501Z,34.10
2018-12-13T09:48:01.851Z,29.40
2018-12-13T09:50:24.177Z,30.93
2018-12-13T09:52:46.543Z,30.53
2018-12-13T09:55:08.908Z,36.13
2018-12-13T09:57:33.814Z,31.40
2018-12-13T09:59:56.113Z,33.33
2018-12-13T10:02:18.574Z,31.93
2018-12-13T10:04:40.936Z,29.33
2018-12-13T10:07:03.272Z,37.00
2018-12-13T10:09:25.593Z,31.57
2018-12-13T10:11:47.987Z,29.83
2018-12-13T10:14:10.339Z,30.90
2018-12-13T10:16:32.652Z,33.87
2018-12-13T10:18:55.085Z,30.43
2018-12-13T10:21:17.430Z,30.37
2018-12-13T10:23:39.768Z,27.27
2018-12-13T10:26:02.443Z,28.93
2018-12-13T10:28:24.809Z,30.73
2018-12-13T10:30:47.109Z,26.97
2018-12-13T10:33:09.435Z,26.67
2018-12-13T10:35:31.808Z,31.10
2018-12-13T10:37:54.123Z,27.30
2018-12-13T10:40:16.435Z,25.33
2018-12-13T10:42:38.775Z,28.00
2018-12-13T10:45:01.130Z,25.83
2018-12-13T10:47:23.467Z,27.63
2018-12-13T10:49:45.804Z,31.30
2018-12-13T10:52:08.198Z,25.03
2018-12-13T10:54:30.565Z,25.73
2018-12-13T10:56:53.082Z,26.97
2018-12-13T10:59:15.499Z,22.13
2018-12-13T11:01:39.843Z,23.53
2018-12-13T11:04:02.245Z,27.23
2018-12-13T11:06:24.628Z,28.07
2018-12-13T11:08:46.980Z,23.07
2018-12-13T11:11:09.343Z,28.20
2018-12-13T11:13:31.699Z,26.97
2018-12-13T11:15:54.128Z,24.20
2018-12-13T11:18:16.493Z,26.00
2018-12-13T11:20:38.940Z,25.93
2018-12-13T11:23:01.373Z,25.20
2018-12-13T11:25:23.730Z,22.93
2018-12-13T11:30:25.147Z,23.50
2018-12-13T11:32:47.475Z,23.10
2018-12-13T11:35:09.779Z,24.37
2018-12-13T11:37:32.043Z,28.53
2018-12-13T11:39:54.441Z,24.47
2018-12-13T11:42:16.721Z,25.57
2018-12-13T11:44:39.060Z,21.13
2018-12-13T11:47:01.372Z,24.60
2018-12-13T11:49:23.651Z,21.13
2018-12-13T11:51:46.043Z,23.83
2018-12-13T11:54:18.458Z,19.53
2018-12-13T11:56:40.766Z,22.37
2018-12-13T11:59:03.201Z,20.40
2018-12-13T12:01:25.516Z,20.67
2018-12-13T12:03:47.899Z,19.03
2018-12-13T12:06:10.196Z,23.30
2018-12-13T12:08:32.520Z,22.20
2018-12-13T12:10:54.863Z,24.83
2018-12-13T12:13:17.307Z,27.70
2018-12-13T12:15:39.678Z,22.60
2018-12-13T12:18:02.019Z,24.20
2018-12-13T12:20:24.355Z,23.93
2018-12-13T12:22:46.649Z,24.47
2018-12-13T12:25:09.028Z,22.10
2018-12-13T12:27:31.410Z,20.90
2018-12-13T12:29:53.793Z,31.23
2018-12-13T12:32:16.225Z,24.93
2018-12-13T12:34:38.585Z,24.93
2018-12-13T12:37:00.928Z,24.93
2018-12-13T12:39:23.374Z,27.50
2018-12-13T12:41:45.709Z,26.23
2018-12-13T12:44:08.078Z,23.33
2018-12-13T12:46:30.437Z,25.93
2018-12-13T12:48:52.907Z,22.33
2018-12-13T12:51:15.192Z,25.63
2018-12-13T12:53:37.512Z,24.93
2018-12-13T12:55:59.853Z,29.23
2018-12-13T12:58:22.328Z,22.33
2018-12-13T13:00:44.685Z,21.10
2018-12-13T13:03:07.014Z,28.17
2018-12-13T13:05:29.425Z,21.83
2018-12-13T13:07:51.803Z,21.77
2018-12-13T13:10:14.109Z,20.50
2018-12-13T13:12:36.504Z,26.23
2018-12-13T13:14:58.827Z,21.43
2018-12-13T13:17:21.145Z,25.37
2018-12-13T13:19:43.579Z,22.53
2018-12-13T13:22:05.986Z,28.40
2018-12-13T13:24:28.346Z,22.13
2018-12-13T13:26:50.765Z,22.47
2018-12-13T13:29:13.052Z,25.30
2018-12-13T13:31:35.369Z,23.10
2018-12-13T13:33:57.812Z,30.60
2018-12-13T13:36:20.176Z,29.30
2018-12-13T13:38:42.643Z,26.70
2018-12-13T13:41:05.011Z,28.60
2018-12-13T13:43:27.365Z,26.53
2018-12-13T13:45:49.732Z,35.20
2018-12-13T13:48:12.049Z,29.90
2018-12-13T13:50:34.425Z,29.33
2018-12-13T13:52:56.862Z,28.33
2018-12-13T13:55:19.185Z,31.33
2018-12-13T13:57:41.495Z,33.17
2018-12-13T14:00:04.959Z,29.13
2018-12-13T14:02:27.278Z,29.43
2018-12-13T14:04:49.629Z,32.43
2018-12-13T14:07:12.801Z,31.07
2018-12-13T14:09:38.098Z,26.70
2018-12-13T14:11:57.667Z,27.97
2018-12-13T14:14:19.986Z,28.97
2018-12-13T14:16:42.406Z,28.13
2018-12-13T14:19:04.747Z,34.00
2018-12-13T14:21:27.116Z,35.93
2018-12-13T14:23:49.544Z,34.10
2018-12-13T14:26:11.993Z,33.67
2018-12-13T14:28:34.327Z,33.23
2018-12-13T14:30:56.645Z,27.37
2018-12-13T14:33:19.002Z,28.40
2018-12-13T14:35:41.441Z,27.73
2018-12-13T14:38:03.851Z,35.20
2018-12-13T14:40:26.175Z,34.47
2018-12-13T14:42:48.532Z,32.40
2018-12-13T14:45:10.867Z,33.53
2018-12-13T14:47:33.922Z,30.57
2018-12-13T14:49:56.510Z,36.20
2018-12-13T14:52:18.912Z,30.80
2018-12-13T14:54:41.239Z,33.13
2018-12-13T14:57:03.608Z,36.90
2018-12-13T14:59:25.918Z,34.50
2018-12-13T15:01:48.308Z,30.80
2018-12-13T15:04:10.584Z,29.90
2018-12-13T15:06:32.870Z,33.00
2018-12-13T15:08:55.192Z,38.27
2018-12-13T15:11:17.457Z,34.13
2018-12-13T15:13:39.838Z,38.30
2018-12-13T15:16:02.147Z,39.07
2018-12-13T15:18:24.495Z,32.40
2018-12-13T15:20:46.831Z,37.97
2018-12-13T15:23:09.082Z,34.47
2018-12-13T15:25:31.358Z,30.33
2018-12-13T15:27:53.640Z,35.57
2018-12-13T15:30:15.944Z,38.87
2018-12-13T15:32:38.252Z,35.07
2018-12-13T15:35:00.567Z,38.23
2018-12-13T15:37:22.968Z,38.60
2018-12-13T15:39:45.269Z,39.67
2018-12-13T15:42:07.644Z,38.97
2018-12-13T15:44:29.895Z,42.30
2018-12-13T15:46:52.152Z,37.80
2018-12-13T15:49:14.427Z,33.20
2018-12-13T15:51:36.742Z,29.80
2018-12-13T15:53:59.020Z,36.27
2018-12-13T15:56:21.291Z,39.90
2018-12-13T15:58:43.591Z,35.20
2018-12-13T16:01:05.888Z,38.90
2018-12-13T16:03:28.189Z,37.03
2018-12-13T16:05:50.470Z,37.90
2018-12-13T16:08:12.796Z,34.07
2018-12-13T16:10:35.108Z,38.27
2018-12-13T16:12:57.471Z,40.13
2018-12-13T16:15:19.850Z,27.43
2018-12-13T16:17:42.355Z,43.20
2018-12-13T16:20:04.960Z,41.87
2018-12-13T16:22:29.378Z,33.10
2018-12-13T16:24:51.703Z,33.43
2018-12-13T16:27:14.123Z,35.47
2018-12-13T16:29:36.502Z,39.93
2018-12-13T16:31:58.835Z,29.93
2018-12-13T16:34:21.177Z,37.63
2018-12-13T16:36:43.595Z,35.97
2018-12-13T16:39:07.070Z,36.40
2018-12-13T16:41:29.372Z,35.07
2018-12-13T16:43:51.707Z,41.30
2018-12-13T16:46:14.048Z,34.60
2018-12-13T16:48:36.345Z,32.10
2018-12-13T16:50:58.638Z,34.00
2018-12-13T16:53:20.982Z,39.27
2018-12-13T16:55:43.247Z,40.83
2018-12-13T16:58:05.546Z,31.10
2018-12-13T17:00:27.883Z,30.13
2018-12-13T17:02:50.157Z,28.80
2018-12-13T17:05:12.495Z,34.87
2018-12-13T17:07:34.822Z,38.13
2018-12-13T17:09:57.108Z,34.17
2018-12-13T17:12:19.486Z,30.53
2018-12-13T17:14:41.805Z,37.40
2018-12-13T17:17:04.366Z,36.87
2018-12-13T17:19:26.786Z,37.43
2018-12-13T17:21:49.124Z,34.87
2018-12-13T17:24:11.486Z,35.00
2018-12-13T17:26:33.821Z,36.77
2018-12-13T17:28:56.135Z,44.00
2018-12-13T17:31:18.509Z,51.77
2018-12-13T17:33:40.853Z,34.93
2018-12-13T17:36:03.212Z,36.53
2018-12-13T17:38:25.588Z,39.57
2018-12-13T17:40:47.947Z,41.60
2018-12-13T17:43:10.248Z,34.13
2018-12-13T17:45:33.158Z,29.13
2018-12-13T17:47:55.504Z,46.70
2018-12-13T17:50:17.925Z,37.93
2018-12-13T17:52:40.459Z,41.90
2018-12-13T17:55:02.888Z,38.73
2018-12-13T17:57:25.337Z,42.37
2018-12-13T17:59:47.828Z,38.77
2018-12-13T18:02:10.203Z,50.97
2018-12-13T18:04:32.549Z,42.50
2018-12-13T18:06:54.876Z,37.10
2018-12-13T18:09:17.180Z,39.73
2018-12-13T18:11:39.561Z,36.00
2018-12-13T18:14:01.904Z,33.77
2018-12-13T18:16:24.253Z,36.33
2018-12-13T18:18:46.553Z,41.40
2018-12-13T18:21:08.885Z,41.70
2018-12-13T18:23:31.203Z,44.27
2018-12-13T18:25:53.544Z,39.10
2018-12-13T18:28:15.915Z,42.30
2018-12-13T18:30:38.195Z,41.70
2018-12-13T18:33:00.470Z,39.87
2018-12-13T18:35:22.777Z,33.63
2018-12-13T18:37:45.088Z,38.87
2018-12-13T18:40:07.400Z,39.60
2018-12-13T18:42:29.796Z,40.37
2018-12-13T18:44:52.115Z,35.07
2018-12-13T18:47:14.466Z,65.33
2018-12-13T18:49:36.807Z,37.70
2018-12-13T18:51:59.168Z,45.73
2018-12-13T18:54:21.745Z,45.17
2018-12-13T18:56:44.050Z,42.83
2018-12-13T18:59:06.403Z,41.73
2018-12-13T19:01:28.771Z,38.53
2018-12-13T19:03:51.081Z,37.07
2018-12-13T19:06:13.534Z,35.63
2018-12-13T19:08:35.835Z,27.80
2018-12-13T19:10:58.471Z,43.60
2018-12-13T19:13:22.201Z,35.40
2018-12-13T19:15:43.156Z,37.93
2018-12-13T19:18:05.427Z,36.83
2018-12-13T19:20:27.737Z,40.20
2018-12-13T19:22:49.995Z,33.97
2018-12-13T19:25:12.492Z,35.27
2018-12-13T19:27:34.850Z,27.00
2018-12-13T19:29:57.260Z,30.80
2018-12-13T19:32:19.733Z,39.40
2018-12-13T19:34:42.126Z,35.77
2018-12-13T19:37:04.499Z,38.97
2018-12-13T19:39:26.822Z,43.60
2018-12-13T19:41:49.147Z,42.47
2018-12-13T19:44:11.511Z,40.73
2018-12-13T19:46:33.861Z,38.20
2018-12-13T19:48:56.203Z,37.10
2018-12-13T19:51:18.591Z,39.23
2018-12-13T19:53:40.932Z,39.03
2018-12-13T19:56:03.540Z,35.33
2018-12-13T19:58:25.882Z,178.53
2018-12-13T20:00:48.229Z,70.07
2018-12-13T20:03:10.636Z,43.20
2018-12-13T20:05:32.982Z,39.43
2018-12-13T20:07:55.343Z,45.17
2018-12-13T20:10:17.657Z,45.77
2018-12-13T20:12:40.007Z,43.37
2018-12-13T20:15:02.375Z,40.00
2018-12-13T20:17:24.734Z,35.47
2018-12-13T20:19:47.107Z,36.80
2018-12-13T20:22:09.487Z,35.13
2018-12-13T20:24:31.997Z,34.33
2018-12-13T20:26:54.395Z,34.43
2018-12-13T20:29:16.808Z,40.20
2018-12-13T20:31:39.275Z,40.03
2018-12-13T20:35:31.421Z,43.90
2018-12-13T20:37:53.741Z,31.37
2018-12-13T20:40:16.734Z,46.57
2018-12-13T20:42:39.073Z,34.37
2018-12-13T20:45:01.376Z,41.30
2018-12-13T20:47:23.714Z,43.63
2018-12-13T20:49:46.035Z,36.20
2018-12-13T20:52:08.331Z,41.73
2018-12-13T20:54:30.748Z,31.43
2018-12-13T20:56:53.119Z,44.67
2018-12-13T20:59:15.455Z,30.77
2018-12-13T21:01:37.759Z,39.13
2018-12-13T21:04:00.169Z,43.67
2018-12-13T21:06:22.505Z,31.13
2018-12-13T21:08:44.876Z,34.73
2018-12-13T21:11:07.693Z,37.07
2018-12-13T21:13:29.551Z,37.47
2018-12-13T21:15:51.897Z,39.80
2018-12-13T21:18:14.201Z,37.90
2018-12-13T21:20:36.564Z,37.90
2018-12-13T21:22:58.943Z,36.17
2018-12-13T21:25:21.316Z,34.97
2018-12-13T21:27:43.707Z,35.13
2018-12-13T21:30:06.276Z,39.03
2018-12-13T21:32:28.541Z,37.83
2018-12-13T21:34:50.814Z,42.60
2018-12-13T21:37:13.084Z,90.83
2018-12-13T21:39:35.345Z,45.20
2018-12-13T21:41:57.709Z,34.53
2018-12-13T21:44:20.012Z,29.30
2018-12-13T21:46:42.424Z,35.37
2018-12-13T21:49:04.732Z,24.33
2018-12-13T21:51:26.984Z,40.03
2018-12-13T21:53:49.274Z,36.50
2018-12-13T21:56:11.512Z,36.23
2018-12-13T21:58:33.810Z,36.03
2018-12-13T22:00:56.108Z,39.43
2018-12-13T22:03:18.395Z,37.63
2018-12-13T22:05:40.629Z,42.27
2018-12-13T22:08:02.929Z,33.73
2018-12-13T22:10:25.237Z,50.30
2018-12-13T22:12:47.562Z,36.13
2018-12-13T22:15:11.451Z,32.80
2018-12-13T22:17:33.797Z,33.60
2018-12-13T22:19:56.079Z,33.67
2018-12-13T22:22:18.444Z,36.00
2018-12-13T22:24:40.808Z,39.93
2018-12-13T22:27:03.288Z,31.60
2018-12-13T22:29:25.642Z,38.30
2018-12-13T22:31:47.971Z,35.33
2018-12-13T22:34:10.356Z,39.97
2018-12-13T22:36:32.713Z,42.33
2018-12-13T22:38:55.035Z,39.43
2018-12-13T22:41:17.394Z,34.40
2018-12-13T22:43:39.764Z,37.60
2018-12-13T22:46:03.232Z,49.40
2018-12-13T22:48:25.593Z,38.43
2018-12-13T22:50:47.924Z,42.00
2018-12-13T22:53:10.269Z,42.73
2018-12-13T22:55:32.610Z,44.00
2018-12-13T22:57:54.925Z,35.37
2018-12-13T23:00:17.301Z,35.70
2018-12-13T23:02:39.616Z,36.40
2018-12-13T23:05:02.075Z,36.23
2018-12-13T23:07:24.359Z,37.20
2018-12-13T23:09:46.715Z,34.47
2018-12-13T23:12:09.020Z,35.13
2018-12-13T23:14:31.328Z,31.87
2018-12-13T23:16:53.770Z,40.90
2018-12-13T23:19:16.108Z,39.40
2018-12-13T23:21:38.367Z,41.67
2018-12-13T23:24:00.673Z,45.87
2018-12-13T23:26:22.972Z,40.63
2018-12-13T23:28:45.232Z,41.10
2018-12-13T23:31:07.520Z,39.53
2018-12-13T23:33:29.779Z,47.67
2018-12-13T23:35:52.090Z,34.10
2018-12-13T23:38:14.386Z,39.07
2018-12-13T23:40:36.703Z,45.87
2018-12-13T23:42:58.964Z,41.23
2018-12-13T23:45:21.272Z,43.93
2018-12-13T23:47:43.655Z,40.60
2018-12-13T23:50:06.122Z,44.67
2018-12-13T23:52:28.425Z,43.03
2018-12-13T23:54:50.721Z,35.77
2018-12-13T23:57:13.001Z,42.97
2018-12-13T23:59:35.347Z,41.37
